Time;durP1;ratioP1;P1;durP2;ratioP2;P2;SDS_P1;SDS_P2;PMS_P1;PMS_P2;Temp;Humidity;BMP_temperature;BMP_pressure;BME280_temperature;BME280_humidity;BME280_pressure;Samples;Min_cycle;Max_cycle;Signal;HPM_P1;HPM_P2
2023/04/16 00:07:40;;;;;;;1023.47;941.83;;;;;;;21.25;52.27;99980.88;20762465;28;20034;-73
2023/04/16 00:17:41;;;;;;;1036.93;954.63;;;;;;;21.26;52.68;99987.81;20767167;28;20058;-73
2023/04/16 00:27:41;;;;;;;983.72;904.17;;;;;;;21.26;52.20;99985.16;20756841;28;20044;-73
2023/04/16 00:37:46;;;;;;;963.90;885.42;;;;;;;21.22;52.32;99994.28;20751878;28;20045;-74
2023/04/16 00:47:46;;;;;;;997.83;917.65;;;;;;;21.22;52.02;99990.81;20764933;28;20042;-74
2023/04/16 00:57:48;;;;;;;994.17;914.17;;;;;;;21.19;52.25;99986.66;20763294;28;20045;-74
2023/04/16 01:07:50;;;;;;;979.73;900.50;;;;;;;21.19;52.38;99983.16;20753347;28;20044;-74
2023/04/16 01:17:50;;;;;;;1032.53;950.63;;;;;;;21.16;52.02;99997.41;20764473;28;20041;-73
2023/04/16 01:27:53;;;;;;;1003.63;923.28;;;;;;;21.17;52.19;99996.47;20757513;28;20370;-74
2023/04/16 01:37:54;;;;;;;984.60;905.22;;;;;;;21.15;51.98;100000.19;20753622;28;20069;-74
2023/04/16 01:47:54;;;;;;;1032.47;950.72;;;;;;;21.13;51.94;99999.47;20754173;28;20492;-74
2023/04/16 01:58:06;;;;;;;1004.72;924.20;;;;;;;21.11;52.26;99992.53;20769914;28;20283;-74
2023/04/16 02:08:06;;;;;;;1009.88;929.08;;;;;;;21.07;51.99;100004.28;20768399;28;20038;-74
2023/04/16 02:18:06;;;;;;;1027.32;945.65;;;;;;;21.07;52.22;100019.28;20767868;28;20124;-76
2023/04/16 02:28:12;;;;;;;1038.00;955.90;;;;;;;21.05;51.69;100021.19;20772443;28;20034;-73
2023/04/16 02:38:13;;;;;;;1082.63;997.88;;;;;;;21.09;51.87;100020.81;20768994;28;20409;-73
2023/04/16 02:48:13;;;;;;;1078.97;994.03;;;;;;;21.06;51.99;100015.78;20760719;28;20436;-73
2023/04/16 02:58:13;;;;;;;1105.10;999.90;;;;;;;21.02;51.75;100005.63;20769391;28;20314;-73
2023/04/16 03:08:16;;;;;;;1110.45;999.90;;;;;;;21.03;51.71;100023.94;20765521;28;20417;-74
2023/04/16 03:18:16;;;;;;;1117.60;999.90;;;;;;;21.02;51.84;100032.81;20769988;28;20045;-73
2023/04/16 03:28:17;;;;;;;1099.75;999.90;;;;;;;21.00;51.72;100041.78;20762856;28;20057;-74
2023/04/16 03:38:17;;;;;;;1082.97;997.53;;;;;;;20.96;51.67;100059.63;20761322;28;20034;-73
2023/04/16 03:48:23;;;;;;;1087.88;999.50;;;;;;;20.97;51.60;100073.63;20773600;28;20091;-73
2023/04/16 03:58:23;;;;;;;1084.50;999.10;;;;;;;20.95;51.69;100076.38;20772503;28;20057;-74
2023/04/16 04:08:24;;;;;;;1074.30;990.28;;;;;;;20.97;51.29;100095.53;20779890;28;20429;-73
2023/04/16 04:18:29;;;;;;;1087.90;998.72;;;;;;;21.04;51.64;100086.13;20752773;28;20069;-72
2023/04/16 04:28:31;;;;;;;1114.07;999.90;;;;;;;21.06;51.29;100096.56;20756132;28;20056;-74
2023/04/16 04:38:39;;;;;;;1100.55;999.90;;;;;;;21.06;51.03;100104.47;20764733;28;20037;-74
2023/04/16 04:48:40;;;;;;;1093.75;999.90;;;;;;;21.14;51.42;100115.22;20756171;28;20033;-74
2023/04/16 04:58:40;;;;;;;1092.82;999.90;;;;;;;21.11;50.97;100120.72;20756368;28;20042;-73
2023/04/16 05:08:49;;;;;;;1078.30;993.95;;;;;;;21.14;50.74;100120.47;20749245;28;20042;-74
2023/04/16 05:18:49;;;;;;;1100.68;999.90;;;;;;;21.13;50.41;100105.63;20754021;28;20100;-75
2023/04/16 05:28:50;;;;;;;1079.20;994.63;;;;;;;21.21;50.87;100126.06;20739375;28;20034;-73
2023/04/16 05:38:53;;;;;;;1067.20;983.53;;;;;;;21.22;51.13;100154.06;20744550;28;20084;-74
2023/04/16 05:48:54;;;;;;;1094.80;999.90;;;;;;;21.25;50.94;100156.44;20728145;28;20042;-73
2023/04/16 05:58:54;;;;;;;1050.80;965.85;;;;;;;21.27;51.47;100168.53;20709061;28;20157;-74
2023/04/16 06:08:55;;;;;;;1077.25;991.22;;;;;;;21.32;51.55;100173.41;20740536;28;20116;-74
2023/04/16 06:18:58;;;;;;;1065.75;979.13;;;;;;;21.35;51.63;100160.00;20741534;28;20045;-75
2023/04/16 06:28:59;;;;;;;1069.13;983.67;;;;;;;21.37;51.81;100160.72;20714466;28;20045;-71
2023/04/16 06:39:00;;;;;;;1037.57;954.00;;;;;;;21.40;51.83;100149.09;20737476;28;20045;-74
2023/04/16 06:49:01;;;;;;;1056.10;971.58;;;;;;;21.41;52.09;100156.88;20731817;28;20037;-75
2023/04/16 06:59:03;;;;;;;1094.13;999.90;;;;;;;21.46;52.38;100155.66;20734491;28;20045;-73
2023/04/16 07:09:03;;;;;;;1088.70;999.90;;;;;;;21.49;52.57;100169.41;20738070;28;20050;-74
2023/04/16 07:19:03;;;;;;;1082.00;994.15;;;;;;;21.55;52.88;100163.63;20741014;28;20123;-76
2023/04/16 07:29:04;;;;;;;1118.82;999.90;;;;;;;21.59;53.51;100173.00;20744887;28;20038;-78
2023/04/16 07:39:05;;;;;;;1110.82;999.90;;;;;;;21.56;51.49;100169.75;20736424;28;22892;-76
2023/04/16 07:49:06;;;;;;;1135.07;999.90;;;;;;;21.53;50.33;100162.09;20757349;28;20148;-79
2023/04/16 07:59:06;;;;;;;1134.45;999.90;;;;;;;21.60;51.44;100160.66;20749209;28;20129;-78
2023/04/16 08:09:14;;;;;;;1115.85;999.90;;;;;;;21.63;51.39;100157.78;20742091;28;20068;-79
2023/04/16 08:19:16;;;;;;;1133.70;999.90;;;;;;;21.65;51.39;100149.72;20752712;28;20049;-81
2023/04/16 08:29:17;;;;;;;1135.38;999.90;;;;;;;21.66;51.26;100165.41;20759771;28;20042;-79
2023/04/16 08:39:17;;;;;;;1127.72;999.90;;;;;;;21.69;51.18;100170.44;20746006;28;20041;-80
2023/04/16 08:49:18;;;;;;;1143.90;999.90;;;;;;;21.71;51.57;100186.13;20759309;28;20064;-80
2023/04/16 08:59:20;;;;;;;1140.65;999.90;;;;;;;21.73;50.97;100190.28;20740237;28;20453;-75
2023/04/16 09:09:21;;;;;;;;;;;;;;;;;;20724407;28;20060;-75
2023/04/16 09:19:22;;;;;;;1152.85;999.90;;;;;;;21.73;50.82;100202.66;20714546;28;19921;-76
2023/04/16 09:29:52;;;;;;;1144.85;999.90;;;;;;;21.73;50.03;100207.91;20717878;28;20115;-77
2023/04/16 09:39:58;;;;;;;1153.47;999.90;;;;;;;21.70;50.49;100208.16;20729171;28;20049;-80
2023/04/16 09:49:58;;;;;;;1143.55;999.90;;;;;;;21.71;50.24;100215.94;20736008;28;20050;-78
2023/04/16 10:00:04;;;;;;;1141.03;999.90;;;;;;;21.70;50.44;100218.69;20730436;28;20108;-76
2023/04/16 10:10:06;;;;;;;1143.45;999.90;;;;;;;21.76;49.99;100199.75;20741259;28;20041;-77
2023/04/16 10:20:08;;;;;;;1111.63;999.90;;;;;;;21.79;49.89;100194.22;20755223;28;20120;-76
2023/04/16 10:30:10;;;;;;;1079.93;994.10;;;;;;;21.84;49.97;100188.59;20777917;28;20129;-76
2023/04/16 10:40:25;;;;;;;1085.65;998.55;;;;;;;21.89;50.24;100183.75;20769795;28;20073;-79
2023/04/16 10:50:34;;;;;;;1090.93;999.90;;;;;;;21.93;51.17;100171.97;20760145;28;20125;-78
2023/04/16 11:00:48;;;;;;;1095.20;999.90;;;;;;;22.01;51.37;100155.53;20758216;28;20046;-77
2023/04/16 11:10:50;;;;;;;1108.93;999.90;;;;;;;22.07;49.87;100161.09;20721388;28;20026;-80
2023/04/16 11:20:50;;;;;;;1124.30;999.90;;;;;;;22.13;50.38;100151.00;20724805;28;20107;-76
2023/04/16 11:30:51;;;;;;;1071.72;985.17;;;;;;;22.22;52.77;100153.69;20730593;28;20045;-79
2023/04/16 11:40:52;;;;;;;1030.72;946.35;;;;;;;22.31;53.90;100141.50;20756597;28;20497;-80
2023/04/16 11:50:57;;;;;;;1043.10;958.00;;;;;;;22.36;53.38;100146.38;20760721;28;20047;-80
2023/04/16 12:00:58;;;;;;;1007.53;924.40;;;;;;;22.42;52.92;100139.78;20762536;28;20071;-79
2023/04/16 12:11:00;;;;;;;1061.27;975.13;;;;;;;22.44;53.02;100137.84;20759974;28;20261;-76
2023/04/16 12:21:03;;;;;;;1062.05;976.08;;;;;;;22.43;52.82;100129.09;20763044;28;20053;-81
2023/04/16 12:31:05;;;;;;;1027.35;943.28;;;;;;;22.42;52.19;100122.13;20761012;28;20485;-78
2023/04/16 12:41:05;;;;;;;1018.97;935.17;;;;;;;22.43;51.93;100113.25;20757278;28;20044;-79
2023/04/16 12:51:06;;;;;;;1059.95;974.20;;;;;;;22.41;51.73;100106.44;20762629;28;20065;-77
2023/04/16 13:01:06;;;;;;;1058.78;973.20;;;;;;;22.38;51.75;100095.19;20755541;28;20053;-79
2023/04/16 13:11:07;;;;;;;1053.50;967.92;;;;;;;22.47;51.67;100095.34;20753902;28;20042;-79
2023/04/16 13:21:07;;;;;;;1099.20;999.90;;;;;;;22.52;51.66;100085.22;20757737;28;20049;-80
2023/04/16 13:31:08;;;;;;;1084.45;996.72;;;;;;;22.55;51.40;100079.69;20766274;28;20034;-80
2023/04/16 13:41:08;;;;;;;1082.37;994.77;;;;;;;22.59;51.52;100075.81;20765144;28;20041;-79
2023/04/16 13:51:09;;;;;;;983.42;901.55;;;;;;;22.60;51.77;100060.81;20777025;28;20287;-80
2023/04/16 14:01:10;;;;;;;943.85;864.13;;;;;;;22.65;52.01;100064.69;20768962;28;20054;-80
2023/04/16 14:11:11;;;;;;;917.50;839.40;;;;;;;22.63;51.83;100063.19;20781152;28;20635;-81
2023/04/16 14:21:12;;;;;;;945.67;865.78;;;;;;;22.59;51.61;100067.88;20776905;28;20030;-79
2023/04/16 14:31:12;;;;;;;955.85;875.60;;;;;;;22.57;51.26;100054.03;20782287;28;20469;-78
2023/04/16 14:41:13;;;;;;;974.40;893.15;;;;;;;22.56;51.68;100044.44;20777927;28;20123;-78
2023/04/16 14:51:13;;;;;;;956.70;876.45;;;;;;;22.55;51.77;100045.41;20777027;28;20068;-81
2023/04/16 15:01:14;;;;;;;975.63;894.33;;;;;;;22.55;50.29;100042.75;20779313;28;20059;-80
2023/04/16 15:11:15;;;;;;;1014.03;930.53;;;;;;;22.75;50.49;100045.41;20785155;28;20107;-81
2023/04/16 15:21:16;;;;;;;1015.72;932.15;;;;;;;22.70;50.54;100045.81;20778582;28;20057;-79
2023/04/16 15:31:19;;;;;;;1025.35;940.95;;;;;;;23.15;50.12;100034.72;20773593;28;20042;-81
2023/04/16 15:41:20;;;;;;;1045.78;959.80;;;;;;;23.11;50.45;100043.91;20773564;28;20607;-80
2023/04/16 15:51:22;;;;;;;935.38;855.35;;;;;;;22.99;51.07;100043.19;20765950;28;20037;-82
2023/04/16 16:01:22;;;;;;;918.13;839.03;;;;;;;22.99;51.23;100043.19;20760160;28;20038;-78
2023/04/16 16:11:23;;;;;;;953.85;873.33;;;;;;;22.96;51.29;100047.91;20768808;28;20038;-81
2023/04/16 16:21:25;;;;;;;963.63;882.53;;;;;;;22.89;52.06;100054.72;20754228;28;20510;-77
2023/04/16 16:31:25;;;;;;;973.72;892.20;;;;;;;22.84;51.92;100052.53;20762329;28;20136;-76
2023/04/16 16:41:27;;;;;;;953.58;873.30;;;;;;;22.81;52.01;100055.44;20757702;28;20140;-77
2023/04/16 16:51:29;;;;;;;1032.83;948.10;;;;;;;22.77;52.37;100051.41;20728690;28;20065;-76
2023/04/16 17:01:30;;;;;;;1003.13;920.42;;;;;;;22.69;52.83;100066.13;20760856;28;20056;-83
2023/04/16 17:11:34;;;;;;;1014.73;931.17;;;;;;;22.68;52.81;100068.91;20776107;28;20046;-85
2023/04/16 17:21:35;;;;;;;999.53;916.92;;;;;;;22.65;53.22;100071.78;20733502;28;20053;-82
2023/04/16 17:31:36;;;;;;;1028.33;943.27;;;;;;;22.66;54.09;100081.38;20721759;28;20046;-83
2023/04/16 17:41:37;;;;;;;996.58;913.45;;;;;;;22.57;48.08;100077.78;20730079;28;20056;-79
2023/04/16 17:51:39;;;;;;;1002.97;919.90;;;;;;;22.56;50.81;100089.28;20738893;28;20124;-79
2023/04/16 18:01:40;;;;;;;984.38;902.25;;;;;;;22.55;51.82;100096.34;20753286;28;20279;-84
2023/04/16 18:11:41;;;;;;;979.28;897.72;;;;;;;22.54;52.47;100107.91;20749846;28;20070;-80
2023/04/16 18:21:42;;;;;;;981.92;900.13;;;;;;;22.54;53.03;100104.41;20758153;28;20080;-79
2023/04/16 18:31:42;;;;;;;989.45;907.35;;;;;;;22.51;53.33;100099.41;20736045;28;20021;-84
2023/04/16 18:41:46;;;;;;;1000.65;918.03;;;;;;;22.49;53.48;100094.25;20740027;28;20104;-87
2023/04/16 18:51:47;;;;;;;997.85;915.22;;;;;;;22.47;53.11;100093.56;20742963;28;20052;-85
2023/04/16 19:01:49;;;;;;;1071.03;984.65;;;;;;;22.47;52.73;100093.56;20730484;28;20060;-81
2023/04/16 19:11:50;;;;;;;1011.80;928.38;;;;;;;22.45;52.88;100108.69;20732175;28;20040;-83
2023/04/16 19:21:51;;;;;;;1053.43;968.17;;;;;;;22.42;52.85;100111.59;20747024;28;20042;-78
2023/04/16 19:31:51;;;;;;;1060.63;974.95;;;;;;;22.37;52.94;100096.16;20737296;28;20045;-81
2023/04/16 19:41:52;;;;;;;1014.83;931.72;;;;;;;22.38;52.92;100100.47;20737937;28;20116;-79
2023/04/16 19:51:54;;;;;;;970.20;889.72;;;;;;;22.35;53.59;100095.44;20738349;28;20044;-79
2023/04/16 20:01:55;;;;;;;952.83;873.20;;;;;;;22.35;54.07;100081.41;20754409;28;21351;-80
2023/04/16 20:11:57;;;;;;;1023.10;939.78;;;;;;;22.33;54.33;100081.53;20739265;28;20034;-80
2023/04/16 20:21:58;;;;;;;1001.47;919.13;;;;;;;22.32;54.35;100089.59;20750609;28;20059;-80
2023/04/16 20:32:00;;;;;;;979.88;898.78;;;;;;;22.29;54.19;100085.44;20721698;28;20730;-79
2023/04/16 20:42:02;;;;;;;1016.20;933.33;;;;;;;22.29;54.31;100087.22;20736759;28;20045;-80
2023/04/16 20:52:04;;;;;;;997.20;915.33;;;;;;;22.26;54.53;100080.41;20723168;28;20044;-78
2023/04/16 21:02:04;;;;;;;1012.80;930.38;;;;;;;22.25;54.02;100080.53;20724578;28;20038;-78
2023/04/16 21:12:05;;;;;;;1011.45;929.13;;;;;;;22.25;54.48;100080.53;20736001;28;20061;-78
2023/04/16 21:22:06;;;;;;;1008.57;926.43;;;;;;;22.21;54.09;100064.16;20742515;28;20564;-78
2023/04/16 21:32:06;;;;;;;951.47;872.53;;;;;;;22.20;54.43;100067.75;20738831;28;20275;-78
2023/04/16 21:42:07;;;;;;;966.28;886.40;;;;;;;22.17;54.20;100063.59;20737926;28;20038;-77
2023/04/16 21:52:18;;;;;;;981.85;901.30;;;;;;;22.16;54.01;100051.34;20745764;28;20030;-79
2023/04/16 22:02:19;;;;;;;954.65;875.58;;;;;;;22.14;54.10;100048.03;20743064;28;20077;-78
2023/04/16 22:12:20;;;;;;;951.20;872.45;;;;;;;22.13;54.14;100054.28;20765164;28;20053;-79
2023/04/16 22:22:20;;;;;;;937.75;859.70;;;;;;;22.13;53.92;100048.16;20782579;28;20121;-79
2023/04/16 22:32:21;;;;;;;953.85;874.90;;;;;;;22.10;53.87;100043.16;20769192;28;20132;-79
2023/04/16 22:42:23;;;;;;;958.03;878.67;;;;;;;22.07;53.85;100034.53;20755147;28;20434;-79
2023/04/16 22:52:23;;;;;;;961.45;882.05;;;;;;;22.06;54.01;100024.13;20769208;28;20140;-79
2023/04/16 23:02:24;;;;;;;952.38;873.80;;;;;;;22.07;53.63;100023.16;20762081;28;20169;-80
2023/04/16 23:12:26;;;;;;;997.83;916.45;;;;;;;22.02;53.78;100013.03;20765543;28;20481;-80
2023/04/16 23:22:27;;;;;;;980.92;900.58;;;;;;;22.01;53.27;100007.88;20773055;28;20041;-80
2023/04/16 23:32:27;;;;;;;973.73;893.90;;;;;;;22.00;53.51;99995.66;20746231;28;20484;-80
2023/04/16 23:42:28;;;;;;;973.83;894.17;;;;;;;21.97;53.43;99993.28;20757936;28;20290;-79
2023/04/16 23:52:28;;;;;;;964.97;885.75;;;;;;;21.97;53.71;99988.03;20763453;28;20048;-81
